sensor_id;sensor_type;location;lat;lon;timestamp;P1;durP1;ratioP1;P2;durP2;ratioP2
74626;SDS011;63132;52.268;5.192;2023-04-24T00:03:37;6.20;;;2.58;;
74626;SDS011;63132;52.268;5.192;2023-04-24T00:06:03;4.63;;;3.13;;
74626;SDS011;63132;52.268;5.192;2023-04-24T00:08:30;6.05;;;2.90;;
74626;SDS011;63132;52.268;5.192;2023-04-24T00:10:55;5.07;;;3.25;;
74626;SDS011;63132;52.268;5.192;2023-04-24T00:13:21;3.83;;;2.60;;
74626;SDS011;63132;52.268;5.192;2023-04-24T00:15:46;3.55;;;2.30;;
74626;SDS011;63132;52.268;5.192;2023-04-24T00:20:37;2.15;;;1.25;;
74626;SDS011;63132;52.268;5.192;2023-04-24T00:23:02;1.00;;;0.70;;
74626;SDS011;63132;52.268;5.192;2023-04-24T00:25:28;1.35;;;0.70;;
74626;SDS011;63132;52.268;5.192;2023-04-24T00:27:53;2.45;;;1.35;;
74626;SDS011;63132;52.268;5.192;2023-04-24T00:30:19;5.00;;;2.08;;
74626;SDS011;63132;52.268;5.192;2023-04-24T00:32:44;3.63;;;2.28;;
74626;SDS011;63132;52.268;5.192;2023-04-24T00:35:09;7.27;;;3.47;;
74626;SDS011;63132;52.268;5.192;2023-04-24T00:37:35;6.93;;;3.58;;
74626;SDS011;63132;52.268;5.192;2023-04-24T00:40:00;7.50;;;2.65;;
74626;SDS011;63132;52.268;5.192;2023-04-24T00:42:26;9.88;;;3.08;;
74626;SDS011;63132;52.268;5.192;2023-04-24T00:44:51;8.25;;;3.83;;
74626;SDS011;63132;52.268;5.192;2023-04-24T00:49:43;3.75;;;2.22;;
74626;SDS011;63132;52.268;5.192;2023-04-24T00:52:09;4.57;;;2.13;;
74626;SDS011;63132;52.268;5.192;2023-04-24T00:54:35;3.63;;;2.00;;
74626;SDS011;63132;52.268;5.192;2023-04-24T00:57:02;3.63;;;1.73;;
74626;SDS011;63132;52.268;5.192;2023-04-24T00:59:28;3.65;;;1.40;;
74626;SDS011;63132;52.268;5.192;2023-04-24T01:01:54;2.00;;;1.05;;
74626;SDS011;63132;52.268;5.192;2023-04-24T01:04:20;2.00;;;1.00;;
74626;SDS011;63132;52.268;5.192;2023-04-24T01:06:46;2.58;;;1.15;;
74626;SDS011;63132;52.268;5.192;2023-04-24T01:09:12;1.92;;;1.30;;
74626;SDS011;63132;52.268;5.192;2023-04-24T01:11:39;5.35;;;1.67;;
74626;SDS011;63132;52.268;5.192;2023-04-24T01:14:06;6.85;;;1.45;;
74626;SDS011;63132;52.268;5.192;2023-04-24T01:16:32;2.78;;;1.10;;
74626;SDS011;63132;52.268;5.192;2023-04-24T01:18:58;2.67;;;1.52;;
74626;SDS011;63132;52.268;5.192;2023-04-24T01:21:23;2.38;;;1.23;;
74626;SDS011;63132;52.268;5.192;2023-04-24T01:23:52;1.60;;;1.00;;
74626;SDS011;63132;52.268;5.192;2023-04-24T01:26:18;2.53;;;1.30;;
74626;SDS011;63132;52.268;5.192;2023-04-24T01:28:45;3.08;;;1.10;;
74626;SDS011;63132;52.268;5.192;2023-04-24T01:33:36;1.92;;;1.13;;
74626;SDS011;63132;52.268;5.192;2023-04-24T01:36:02;2.17;;;1.55;;
74626;SDS011;63132;52.268;5.192;2023-04-24T01:38:27;3.80;;;1.42;;
74626;SDS011;63132;52.268;5.192;2023-04-24T01:40:53;3.40;;;1.83;;
74626;SDS011;63132;52.268;5.192;2023-04-24T01:43:18;5.38;;;2.72;;
74626;SDS011;63132;52.268;5.192;2023-04-24T01:45:44;8.68;;;2.63;;
74626;SDS011;63132;52.268;5.192;2023-04-24T01:48:10;6.82;;;2.63;;
74626;SDS011;63132;52.268;5.192;2023-04-24T01:50:37;7.80;;;3.28;;
74626;SDS011;63132;52.268;5.192;2023-04-24T01:53:02;7.38;;;3.70;;
74626;SDS011;63132;52.268;5.192;2023-04-24T01:55:28;7.00;;;3.45;;
74626;SDS011;63132;52.268;5.192;2023-04-24T01:57:53;7.57;;;3.90;;
74626;SDS011;63132;52.268;5.192;2023-04-24T02:00:21;5.78;;;3.17;;
74626;SDS011;63132;52.268;5.192;2023-04-24T02:02:47;4.90;;;2.58;;
74626;SDS011;63132;52.268;5.192;2023-04-24T02:05:12;4.67;;;2.50;;
74626;SDS011;63132;52.268;5.192;2023-04-24T02:07:37;7.30;;;2.13;;
74626;SDS011;63132;52.268;5.192;2023-04-24T02:10:03;5.85;;;1.80;;
74626;SDS011;63132;52.268;5.192;2023-04-24T02:12:29;6.93;;;2.20;;
74626;SDS011;63132;52.268;5.192;2023-04-24T02:14:54;6.38;;;1.70;;
74626;SDS011;63132;52.268;5.192;2023-04-24T02:17:20;2.40;;;1.50;;
74626;SDS011;63132;52.268;5.192;2023-04-24T02:19:45;3.22;;;1.50;;
74626;SDS011;63132;52.268;5.192;2023-04-24T02:22:11;4.80;;;1.25;;
74626;SDS011;63132;52.268;5.192;2023-04-24T02:24:37;2.53;;;1.20;;
74626;SDS011;63132;52.268;5.192;2023-04-24T02:29:28;2.30;;;1.30;;
74626;SDS011;63132;52.268;5.192;2023-04-24T02:31:53;2.80;;;1.20;;
74626;SDS011;63132;52.268;5.192;2023-04-24T02:34:19;1.17;;;0.87;;
74626;SDS011;63132;52.268;5.192;2023-04-24T02:36:44;2.78;;;1.10;;
74626;SDS011;63132;52.268;5.192;2023-04-24T02:39:09;4.97;;;1.03;;
74626;SDS011;63132;52.268;5.192;2023-04-24T02:41:35;2.47;;;1.00;;
74626;SDS011;63132;52.268;5.192;2023-04-24T02:44:00;0.73;;;0.70;;
74626;SDS011;63132;52.268;5.192;2023-04-24T02:46:25;1.63;;;1.00;;
74626;SDS011;63132;52.268;5.192;2023-04-24T02:48:51;0.82;;;0.60;;
74626;SDS011;63132;52.268;5.192;2023-04-24T02:51:16;1.35;;;0.70;;
74626;SDS011;63132;52.268;5.192;2023-04-24T02:53:41;1.10;;;0.63;;
74626;SDS011;63132;52.268;5.192;2023-04-24T02:56:07;1.08;;;0.98;;
74626;SDS011;63132;52.268;5.192;2023-04-24T02:58:32;1.83;;;1.02;;
74626;SDS011;63132;52.268;5.192;2023-04-24T03:00:57;1.98;;;1.10;;
74626;SDS011;63132;52.268;5.192;2023-04-24T03:03:23;2.88;;;1.17;;
74626;SDS011;63132;52.268;5.192;2023-04-24T03:08:15;1.88;;;1.30;;
74626;SDS011;63132;52.268;5.192;2023-04-24T03:10:40;5.68;;;1.55;;
74626;SDS011;63132;52.268;5.192;2023-04-24T03:13:05;2.67;;;1.70;;
74626;SDS011;63132;52.268;5.192;2023-04-24T03:15:31;1.60;;;1.20;;
74626;SDS011;63132;52.268;5.192;2023-04-24T03:17:56;2.85;;;1.30;;
74626;SDS011;63132;52.268;5.192;2023-04-24T03:20:22;4.20;;;1.37;;
74626;SDS011;63132;52.268;5.192;2023-04-24T03:22:47;4.60;;;2.33;;
74626;SDS011;63132;52.268;5.192;2023-04-24T03:25:12;2.53;;;1.50;;
74626;SDS011;63132;52.268;5.192;2023-04-24T03:27:38;1.70;;;1.30;;
74626;SDS011;63132;52.268;5.192;2023-04-24T03:32:30;2.30;;;1.20;;
74626;SDS011;63132;52.268;5.192;2023-04-24T03:34:57;2.90;;;1.55;;
74626;SDS011;63132;52.268;5.192;2023-04-24T03:37:22;2.40;;;1.40;;
74626;SDS011;63132;52.268;5.192;2023-04-24T03:39:47;3.38;;;1.60;;
74626;SDS011;63132;52.268;5.192;2023-04-24T03:42:13;3.30;;;1.80;;
74626;SDS011;63132;52.268;5.192;2023-04-24T03:44:38;3.10;;;1.70;;
74626;SDS011;63132;52.268;5.192;2023-04-24T03:47:03;4.35;;;1.77;;
74626;SDS011;63132;52.268;5.192;2023-04-24T03:49:29;4.80;;;2.00;;
74626;SDS011;63132;52.268;5.192;2023-04-24T03:51:54;4.68;;;2.30;;
74626;SDS011;63132;52.268;5.192;2023-04-24T03:54:20;5.75;;;2.65;;
74626;SDS011;63132;52.268;5.192;2023-04-24T03:56:45;4.50;;;2.65;;
74626;SDS011;63132;52.268;5.192;2023-04-24T03:59:11;6.00;;;2.67;;
74626;SDS011;63132;52.268;5.192;2023-04-24T04:01:36;4.80;;;2.67;;
74626;SDS011;63132;52.268;5.192;2023-04-24T04:04:11;7.70;;;2.47;;
74626;SDS011;63132;52.268;5.192;2023-04-24T04:06:36;5.00;;;2.67;;
74626;SDS011;63132;52.268;5.192;2023-04-24T04:09:02;5.15;;;3.05;;
74626;SDS011;63132;52.268;5.192;2023-04-24T04:11:28;6.68;;;2.70;;
74626;SDS011;63132;52.268;5.192;2023-04-24T04:13:53;6.20;;;2.95;;
74626;SDS011;63132;52.268;5.192;2023-04-24T04:16:18;7.07;;;2.95;;
74626;SDS011;63132;52.268;5.192;2023-04-24T04:18:44;5.90;;;3.47;;
74626;SDS011;63132;52.268;5.192;2023-04-24T04:21:10;7.63;;;3.45;;
74626;SDS011;63132;52.268;5.192;2023-04-24T04:23:36;4.97;;;3.08;;
74626;SDS011;63132;52.268;5.192;2023-04-24T04:26:01;6.38;;;3.20;;
74626;SDS011;63132;52.268;5.192;2023-04-24T04:28:28;6.18;;;3.22;;
74626;SDS011;63132;52.268;5.192;2023-04-24T04:30:55;6.82;;;3.28;;
74626;SDS011;63132;52.268;5.192;2023-04-24T04:33:22;7.03;;;3.35;;
74626;SDS011;63132;52.268;5.192;2023-04-24T04:35:48;6.03;;;3.47;;
74626;SDS011;63132;52.268;5.192;2023-04-24T04:38:14;8.02;;;3.67;;
74626;SDS011;63132;52.268;5.192;2023-04-24T04:40:41;7.95;;;3.15;;
74626;SDS011;63132;52.268;5.192;2023-04-24T04:43:07;6.15;;;3.45;;
74626;SDS011;63132;52.268;5.192;2023-04-24T04:45:33;6.07;;;3.05;;
74626;SDS011;63132;52.268;5.192;2023-04-24T04:47:59;4.63;;;2.28;;
74626;SDS011;63132;52.268;5.192;2023-04-24T04:50:28;6.22;;;2.20;;
74626;SDS011;63132;52.268;5.192;2023-04-24T04:52:54;3.75;;;2.30;;
74626;SDS011;63132;52.268;5.192;2023-04-24T04:55:19;4.20;;;2.58;;
74626;SDS011;63132;52.268;5.192;2023-04-24T04:57:45;3.97;;;1.60;;
74626;SDS011;63132;52.268;5.192;2023-04-24T05:00:11;2.72;;;1.98;;
74626;SDS011;63132;52.268;5.192;2023-04-24T05:02:37;3.63;;;1.35;;
74626;SDS011;63132;52.268;5.192;2023-04-24T05:05:04;4.47;;;1.80;;
74626;SDS011;63132;52.268;5.192;2023-04-24T05:07:30;2.30;;;1.33;;
74626;SDS011;63132;52.268;5.192;2023-04-24T05:09:56;2.60;;;1.45;;
74626;SDS011;63132;52.268;5.192;2023-04-24T05:12:21;2.65;;;1.58;;
74626;SDS011;63132;52.268;5.192;2023-04-24T05:14:46;2.25;;;1.08;;
74626;SDS011;63132;52.268;5.192;2023-04-24T05:17:12;2.20;;;1.40;;
74626;SDS011;63132;52.268;5.192;2023-04-24T05:19:37;2.03;;;1.10;;
74626;SDS011;63132;52.268;5.192;2023-04-24T05:24:31;7.60;;;1.70;;
74626;SDS011;63132;52.268;5.192;2023-04-24T05:26:57;2.58;;;1.42;;
74626;SDS011;63132;52.268;5.192;2023-04-24T05:29:23;2.05;;;1.25;;
74626;SDS011;63132;52.268;5.192;2023-04-24T05:31:49;3.80;;;1.70;;
74626;SDS011;63132;52.268;5.192;2023-04-24T05:34:14;2.75;;;1.25;;
74626;SDS011;63132;52.268;5.192;2023-04-24T05:36:41;4.25;;;1.73;;
74626;SDS011;63132;52.268;5.192;2023-04-24T05:39:07;4.53;;;1.33;;
74626;SDS011;63132;52.268;5.192;2023-04-24T05:41:33;2.42;;;1.33;;
74626;SDS011;63132;52.268;5.192;2023-04-24T05:43:58;2.95;;;1.20;;
74626;SDS011;63132;52.268;5.192;2023-04-24T05:46:24;1.95;;;1.02;;
74626;SDS011;63132;52.268;5.192;2023-04-24T05:48:50;3.58;;;1.38;;
74626;SDS011;63132;52.268;5.192;2023-04-24T05:51:15;2.77;;;1.10;;
74626;SDS011;63132;52.268;5.192;2023-04-24T05:53:40;3.20;;;1.13;;
74626;SDS011;63132;52.268;5.192;2023-04-24T05:56:05;2.95;;;1.30;;
74626;SDS011;63132;52.268;5.192;2023-04-24T05:58:31;2.88;;;1.20;;
74626;SDS011;63132;52.268;5.192;2023-04-24T06:00:56;2.17;;;1.38;;
74626;SDS011;63132;52.268;5.192;2023-04-24T06:03:23;4.13;;;1.83;;
74626;SDS011;63132;52.268;5.192;2023-04-24T06:05:50;12.23;;;5.45;;
74626;SDS011;63132;52.268;5.192;2023-04-24T06:08:16;19.35;;;8.93;;
74626;SDS011;63132;52.268;5.192;2023-04-24T06:10:41;26.55;;;11.70;;
74626;SDS011;63132;52.268;5.192;2023-04-24T06:13:06;36.15;;;14.65;;
74626;SDS011;63132;52.268;5.192;2023-04-24T06:15:32;37.80;;;16.48;;
74626;SDS011;63132;52.268;5.192;2023-04-24T06:17:58;39.65;;;17.13;;
74626;SDS011;63132;52.268;5.192;2023-04-24T06:20:23;39.90;;;18.60;;
74626;SDS011;63132;52.268;5.192;2023-04-24T06:22:49;42.15;;;17.83;;
74626;SDS011;63132;52.268;5.192;2023-04-24T06:25:14;41.70;;;18.73;;
74626;SDS011;63132;52.268;5.192;2023-04-24T06:27:40;44.83;;;19.30;;
74626;SDS011;63132;52.268;5.192;2023-04-24T06:30:05;46.78;;;21.27;;
74626;SDS011;63132;52.268;5.192;2023-04-24T06:32:32;43.03;;;19.77;;
74626;SDS011;63132;52.268;5.192;2023-04-24T06:34:57;45.08;;;18.80;;
74626;SDS011;63132;52.268;5.192;2023-04-24T06:37:23;45.42;;;19.00;;
74626;SDS011;63132;52.268;5.192;2023-04-24T06:39:48;39.78;;;19.33;;
74626;SDS011;63132;52.268;5.192;2023-04-24T06:42:14;40.47;;;19.60;;
74626;SDS011;63132;52.268;5.192;2023-04-24T06:44:40;45.70;;;20.88;;
74626;SDS011;63132;52.268;5.192;2023-04-24T06:47:08;52.55;;;20.60;;
74626;SDS011;63132;52.268;5.192;2023-04-24T06:49:38;35.80;;;17.13;;
74626;SDS011;63132;52.268;5.192;2023-04-24T06:52:05;39.13;;;16.92;;
74626;SDS011;63132;52.268;5.192;2023-04-24T06:54:30;39.60;;;17.10;;
74626;SDS011;63132;52.268;5.192;2023-04-24T06:56:56;33.97;;;16.80;;
74626;SDS011;63132;52.268;5.192;2023-04-24T06:59:22;38.60;;;16.02;;
74626;SDS011;63132;52.268;5.192;2023-04-24T07:01:48;33.00;;;15.85;;
74626;SDS011;63132;52.268;5.192;2023-04-24T07:04:14;45.67;;;18.08;;
74626;SDS011;63132;52.268;5.192;2023-04-24T07:06:39;43.90;;;17.08;;
74626;SDS011;63132;52.268;5.192;2023-04-24T07:09:05;41.17;;;16.45;;
74626;SDS011;63132;52.268;5.192;2023-04-24T07:11:30;31.15;;;16.40;;
74626;SDS011;63132;52.268;5.192;2023-04-24T07:13:56;38.42;;;16.13;;
74626;SDS011;63132;52.268;5.192;2023-04-24T07:16:21;33.65;;;14.80;;
74626;SDS011;63132;52.268;5.192;2023-04-24T07:18:47;29.75;;;14.93;;
74626;SDS011;63132;52.268;5.192;2023-04-24T07:21:12;30.20;;;13.13;;
74626;SDS011;63132;52.268;5.192;2023-04-24T07:23:38;32.20;;;14.67;;
74626;SDS011;63132;52.268;5.192;2023-04-24T07:26:03;34.80;;;13.80;;
74626;SDS011;63132;52.268;5.192;2023-04-24T07:28:28;38.30;;;14.00;;
74626;SDS011;63132;52.268;5.192;2023-04-24T07:30:57;40.38;;;13.30;;
74626;SDS011;63132;52.268;5.192;2023-04-24T07:33:24;31.30;;;13.60;;
74626;SDS011;63132;52.268;5.192;2023-04-24T07:35:50;39.35;;;13.60;;
74626;SDS011;63132;52.268;5.192;2023-04-24T07:38:15;34.53;;;15.30;;
74626;SDS011;63132;52.268;5.192;2023-04-24T07:40:41;33.00;;;14.15;;
74626;SDS011;63132;52.268;5.192;2023-04-24T07:43:06;35.05;;;14.55;;
74626;SDS011;63132;52.268;5.192;2023-04-24T07:45:31;38.35;;;13.20;;
74626;SDS011;63132;52.268;5.192;2023-04-24T07:48:00;34.50;;;12.68;;
74626;SDS011;63132;52.268;5.192;2023-04-24T07:50:26;31.77;;;12.35;;
74626;SDS011;63132;52.268;5.192;2023-04-24T07:52:51;27.80;;;10.98;;
74626;SDS011;63132;52.268;5.192;2023-04-24T07:55:17;25.17;;;11.07;;
74626;SDS011;63132;52.268;5.192;2023-04-24T07:57:42;36.25;;;10.98;;
74626;SDS011;63132;52.268;5.192;2023-04-24T08:00:08;36.53;;;10.30;;
74626;SDS011;63132;52.268;5.192;2023-04-24T08:02:34;32.22;;;9.63;;
74626;SDS011;63132;52.268;5.192;2023-04-24T08:04:59;34.60;;;9.23;;
74626;SDS011;63132;52.268;5.192;2023-04-24T08:07:25;28.80;;;8.90;;
74626;SDS011;63132;52.268;5.192;2023-04-24T08:09:50;18.30;;;7.22;;
74626;SDS011;63132;52.268;5.192;2023-04-24T08:12:15;26.10;;;8.25;;
74626;SDS011;63132;52.268;5.192;2023-04-24T08:14:41;27.05;;;7.50;;
74626;SDS011;63132;52.268;5.192;2023-04-24T08:17:06;18.98;;;6.00;;
74626;SDS011;63132;52.268;5.192;2023-04-24T08:19:31;23.60;;;5.43;;
74626;SDS011;63132;52.268;5.192;2023-04-24T08:21:57;25.23;;;5.07;;
74626;SDS011;63132;52.268;5.192;2023-04-24T08:24:22;26.90;;;5.30;;
74626;SDS011;63132;52.268;5.192;2023-04-24T08:26:48;25.00;;;5.85;;
74626;SDS011;63132;52.268;5.192;2023-04-24T08:29:15;22.25;;;5.82;;
74626;SDS011;63132;52.268;5.192;2023-04-24T08:31:41;18.33;;;5.40;;
74626;SDS011;63132;52.268;5.192;2023-04-24T08:34:06;24.92;;;5.53;;
74626;SDS011;63132;52.268;5.192;2023-04-24T08:36:31;21.40;;;5.63;;
74626;SDS011;63132;52.268;5.192;2023-04-24T08:38:57;24.83;;;6.30;;
74626;SDS011;63132;52.268;5.192;2023-04-24T08:41:22;25.98;;;5.88;;
74626;SDS011;63132;52.268;5.192;2023-04-24T08:43:51;28.35;;;6.10;;
74626;SDS011;63132;52.268;5.192;2023-04-24T08:46:16;19.02;;;5.57;;
74626;SDS011;63132;52.268;5.192;2023-04-24T08:48:44;15.05;;;5.25;;
74626;SDS011;63132;52.268;5.192;2023-04-24T08:51:10;24.88;;;5.43;;
74626;SDS011;63132;52.268;5.192;2023-04-24T08:53:35;15.38;;;4.93;;
74626;SDS011;63132;52.268;5.192;2023-04-24T08:56:01;16.38;;;4.28;;
74626;SDS011;63132;52.268;5.192;2023-04-24T09:00:56;16.27;;;3.78;;
74626;SDS011;63132;52.268;5.192;2023-04-24T09:03:23;10.85;;;3.58;;
74626;SDS011;63132;52.268;5.192;2023-04-24T09:05:49;16.65;;;3.75;;
74626;SDS011;63132;52.268;5.192;2023-04-24T09:08:18;26.85;;;3.67;;
74626;SDS011;63132;52.268;5.192;2023-04-24T09:10:45;19.35;;;3.75;;
74626;SDS011;63132;52.268;5.192;2023-04-24T09:13:10;13.43;;;3.25;;
74626;SDS011;63132;52.268;5.192;2023-04-24T09:18:02;15.07;;;3.72;;
74626;SDS011;63132;52.268;5.192;2023-04-24T09:20:28;12.20;;;3.63;;
74626;SDS011;63132;52.268;5.192;2023-04-24T09:22:53;16.27;;;3.05;;
74626;SDS011;63132;52.268;5.192;2023-04-24T09:25:20;11.18;;;3.03;;
74626;SDS011;63132;52.268;5.192;2023-04-24T09:27:46;13.07;;;2.83;;
74626;SDS011;63132;52.268;5.192;2023-04-24T09:30:12;14.57;;;3.17;;
74626;SDS011;63132;52.268;5.192;2023-04-24T09:32:37;10.55;;;2.38;;
74626;SDS011;63132;52.268;5.192;2023-04-24T09:35:13;14.00;;;2.90;;
74626;SDS011;63132;52.268;5.192;2023-04-24T09:37:41;11.52;;;2.60;;
74626;SDS011;63132;52.268;5.192;2023-04-24T09:40:08;14.00;;;3.08;;
74626;SDS011;63132;52.268;5.192;2023-04-24T09:42:36;9.80;;;2.55;;
74626;SDS011;63132;52.268;5.192;2023-04-24T09:45:02;14.60;;;3.05;;
74626;SDS011;63132;52.268;5.192;2023-04-24T09:47:27;18.98;;;2.83;;
74626;SDS011;63132;52.268;5.192;2023-04-24T09:49:57;19.43;;;3.97;;
74626;SDS011;63132;52.268;5.192;2023-04-24T09:52:23;10.68;;;2.63;;
74626;SDS011;63132;52.268;5.192;2023-04-24T09:54:53;11.77;;;2.92;;
74626;SDS011;63132;52.268;5.192;2023-04-24T09:57:19;9.20;;;2.47;;
74626;SDS011;63132;52.268;5.192;2023-04-24T09:59:45;9.68;;;2.38;;
74626;SDS011;63132;52.268;5.192;2023-04-24T10:02:17;21.08;;;3.08;;
74626;SDS011;63132;52.268;5.192;2023-04-24T10:04:53;8.73;;;2.00;;
74626;SDS011;63132;52.268;5.192;2023-04-24T10:07:20;15.80;;;2.35;;
74626;SDS011;63132;52.268;5.192;2023-04-24T10:09:46;5.50;;;2.22;;
74626;SDS011;63132;52.268;5.192;2023-04-24T10:12:11;8.90;;;1.70;;
74626;SDS011;63132;52.268;5.192;2023-04-24T10:14:38;7.20;;;1.80;;
74626;SDS011;63132;52.268;5.192;2023-04-24T10:17:03;8.00;;;1.55;;
74626;SDS011;63132;52.268;5.192;2023-04-24T10:19:30;8.73;;;2.13;;
74626;SDS011;63132;52.268;5.192;2023-04-24T10:24:22;10.38;;;1.65;;
74626;SDS011;63132;52.268;5.192;2023-04-24T10:29:13;7.13;;;1.45;;
74626;SDS011;63132;52.268;5.192;2023-04-24T10:31:40;9.38;;;1.88;;
74626;SDS011;63132;52.268;5.192;2023-04-24T10:34:06;8.75;;;1.55;;
74626;SDS011;63132;52.268;5.192;2023-04-24T10:36:33;8.10;;;1.95;;
74626;SDS011;63132;52.268;5.192;2023-04-24T10:39:01;6.60;;;1.23;;
74626;SDS011;63132;52.268;5.192;2023-04-24T10:41:29;2.65;;;1.15;;
74626;SDS011;63132;52.268;5.192;2023-04-24T10:44:12;5.50;;;1.08;;
74626;SDS011;63132;52.268;5.192;2023-04-24T10:46:46;7.25;;;1.40;;
74626;SDS011;63132;52.268;5.192;2023-04-24T10:49:19;5.28;;;1.30;;
74626;SDS011;63132;52.268;5.192;2023-04-24T10:51:53;3.08;;;0.82;;
74626;SDS011;63132;52.268;5.192;2023-04-24T10:54:25;6.45;;;1.45;;
74626;SDS011;63132;52.268;5.192;2023-04-24T10:57:28;8.50;;;1.40;;
74626;SDS011;63132;52.268;5.192;2023-04-24T11:02:54;9.90;;;1.20;;
74626;SDS011;63132;52.268;5.192;2023-04-24T11:05:20;2.35;;;1.00;;
74626;SDS011;63132;52.268;5.192;2023-04-24T11:10:45;5.68;;;1.00;;
74626;SDS011;63132;52.268;5.192;2023-04-24T11:13:15;4.55;;;1.33;;
74626;SDS011;63132;52.268;5.192;2023-04-24T11:15:42;2.58;;;0.60;;
74626;SDS011;63132;52.268;5.192;2023-04-24T11:18:12;3.10;;;0.85;;
74626;SDS011;63132;52.268;5.192;2023-04-24T11:20:41;5.43;;;0.90;;
74626;SDS011;63132;52.268;5.192;2023-04-24T11:23:07;8.93;;;0.90;;
74626;SDS011;63132;52.268;5.192;2023-04-24T11:25:33;4.90;;;1.00;;
74626;SDS011;63132;52.268;5.192;2023-04-24T11:28:04;1.77;;;0.73;;
74626;SDS011;63132;52.268;5.192;2023-04-24T11:30:30;8.63;;;1.00;;
74626;SDS011;63132;52.268;5.192;2023-04-24T11:33:01;4.50;;;1.10;;
74626;SDS011;63132;52.268;5.192;2023-04-24T11:35:29;4.28;;;0.73;;
74626;SDS011;63132;52.268;5.192;2023-04-24T11:37:55;4.00;;;0.85;;
74626;SDS011;63132;52.268;5.192;2023-04-24T11:40:21;5.35;;;1.05;;
74626;SDS011;63132;52.268;5.192;2023-04-24T11:42:49;5.72;;;0.80;;
74626;SDS011;63132;52.268;5.192;2023-04-24T11:45:22;5.43;;;0.85;;
74626;SDS011;63132;52.268;5.192;2023-04-24T11:47:49;7.10;;;1.20;;
74626;SDS011;63132;52.268;5.192;2023-04-24T11:52:42;7.90;;;1.30;;
74626;SDS011;63132;52.268;5.192;2023-04-24T11:57:59;6.63;;;1.10;;
74626;SDS011;63132;52.268;5.192;2023-04-24T12:00:28;5.40;;;1.20;;
74626;SDS011;63132;52.268;5.192;2023-04-24T12:03:05;3.13;;;1.00;;
74626;SDS011;63132;52.268;5.192;2023-04-24T12:05:35;5.95;;;1.00;;
74626;SDS011;63132;52.268;5.192;2023-04-24T12:10:26;3.33;;;0.85;;
74626;SDS011;63132;52.268;5.192;2023-04-24T12:12:55;5.95;;;1.33;;
74626;SDS011;63132;52.268;5.192;2023-04-24T12:15:21;6.47;;;1.20;;
74626;SDS011;63132;52.268;5.192;2023-04-24T12:20:13;7.55;;;2.00;;
74626;SDS011;63132;52.268;5.192;2023-04-24T12:22:56;8.82;;;1.42;;
74626;SDS011;63132;52.268;5.192;2023-04-24T12:25:23;11.35;;;2.40;;
74626;SDS011;63132;52.268;5.192;2023-04-24T12:27:53;9.70;;;1.58;;
74626;SDS011;63132;52.268;5.192;2023-04-24T12:30:20;10.15;;;2.10;;
74626;SDS011;63132;52.268;5.192;2023-04-24T12:32:48;12.25;;;2.50;;
74626;SDS011;63132;52.268;5.192;2023-04-24T12:35:22;13.45;;;3.25;;
74626;SDS011;63132;52.268;5.192;2023-04-24T12:37:49;10.98;;;2.25;;
74626;SDS011;63132;52.268;5.192;2023-04-24T12:42:44;14.82;;;3.08;;
74626;SDS011;63132;52.268;5.192;2023-04-24T12:45:11;16.17;;;3.63;;
74626;SDS011;63132;52.268;5.192;2023-04-24T12:50:02;6.90;;;2.45;;
74626;SDS011;63132;52.268;5.192;2023-04-24T12:52:28;14.68;;;2.20;;
74626;SDS011;63132;52.268;5.192;2023-04-24T12:54:58;17.77;;;3.03;;
74626;SDS011;63132;52.268;5.192;2023-04-24T12:57:25;13.45;;;2.72;;
74626;SDS011;63132;52.268;5.192;2023-04-24T12:59:55;10.90;;;2.42;;
74626;SDS011;63132;52.268;5.192;2023-04-24T13:02:25;10.70;;;2.58;;
74626;SDS011;63132;52.268;5.192;2023-04-24T13:04:52;11.30;;;2.47;;
74626;SDS011;63132;52.268;5.192;2023-04-24T13:07:18;18.00;;;3.20;;
74626;SDS011;63132;52.268;5.192;2023-04-24T13:09:44;19.92;;;3.47;;
74626;SDS011;63132;52.268;5.192;2023-04-24T13:12:10;15.65;;;2.42;;
74626;SDS011;63132;52.268;5.192;2023-04-24T13:14:37;14.95;;;2.88;;
74626;SDS011;63132;52.268;5.192;2023-04-24T13:17:02;17.42;;;3.50;;
74626;SDS011;63132;52.268;5.192;2023-04-24T13:19:28;15.32;;;2.88;;
74626;SDS011;63132;52.268;5.192;2023-04-24T13:21:54;10.85;;;2.83;;
74626;SDS011;63132;52.268;5.192;2023-04-24T13:24:22;15.50;;;3.42;;
74626;SDS011;63132;52.268;5.192;2023-04-24T13:26:52;11.75;;;2.63;;
74626;SDS011;63132;52.268;5.192;2023-04-24T13:29:17;18.08;;;3.15;;
74626;SDS011;63132;52.268;5.192;2023-04-24T13:31:43;10.25;;;2.90;;
74626;SDS011;63132;52.268;5.192;2023-04-24T13:36:34;17.65;;;3.25;;
74626;SDS011;63132;52.268;5.192;2023-04-24T13:41:25;17.92;;;3.83;;
74626;SDS011;63132;52.268;5.192;2023-04-24T13:46:16;11.53;;;3.27;;
74626;SDS011;63132;52.268;5.192;2023-04-24T13:48:41;14.02;;;2.42;;
74626;SDS011;63132;52.268;5.192;2023-04-24T13:51:07;12.35;;;2.45;;
74626;SDS011;63132;52.268;5.192;2023-04-24T13:56:00;15.27;;;2.97;;
74626;SDS011;63132;52.268;5.192;2023-04-24T14:00:52;10.63;;;2.92;;
74626;SDS011;63132;52.268;5.192;2023-04-24T14:05:42;11.43;;;2.95;;
74626;SDS011;63132;52.268;5.192;2023-04-24T14:08:08;19.63;;;3.40;;
74626;SDS011;63132;52.268;5.192;2023-04-24T14:10:33;12.85;;;3.38;;
74626;SDS011;63132;52.268;5.192;2023-04-24T14:12:58;9.27;;;2.78;;
74626;SDS011;63132;52.268;5.192;2023-04-24T14:15:24;15.98;;;2.78;;
74626;SDS011;63132;52.268;5.192;2023-04-24T14:17:49;18.45;;;2.83;;
74626;SDS011;63132;52.268;5.192;2023-04-24T14:20:15;16.73;;;3.30;;
74626;SDS011;63132;52.268;5.192;2023-04-24T14:22:40;12.95;;;2.80;;
74626;SDS011;63132;52.268;5.192;2023-04-24T14:25:06;15.85;;;3.17;;
74626;SDS011;63132;52.268;5.192;2023-04-24T14:27:31;14.85;;;4.15;;
74626;SDS011;63132;52.268;5.192;2023-04-24T14:29:57;19.73;;;5.30;;
74626;SDS011;63132;52.268;5.192;2023-04-24T14:32:22;11.07;;;2.70;;
74626;SDS011;63132;52.268;5.192;2023-04-24T14:37:13;16.75;;;3.08;;
74626;SDS011;63132;52.268;5.192;2023-04-24T14:39:38;18.98;;;3.33;;
74626;SDS011;63132;52.268;5.192;2023-04-24T14:42:04;12.77;;;2.80;;
74626;SDS011;63132;52.268;5.192;2023-04-24T14:44:29;10.88;;;2.63;;
74626;SDS011;63132;52.268;5.192;2023-04-24T14:46:54;14.80;;;2.97;;
74626;SDS011;63132;52.268;5.192;2023-04-24T14:51:45;9.13;;;3.53;;
74626;SDS011;63132;52.268;5.192;2023-04-24T14:56:36;14.15;;;3.17;;
74626;SDS011;63132;52.268;5.192;2023-04-24T14:59:02;11.68;;;2.60;;
74626;SDS011;63132;52.268;5.192;2023-04-24T15:01:27;11.27;;;3.38;;
74626;SDS011;63132;52.268;5.192;2023-04-24T15:03:53;17.65;;;4.25;;
74626;SDS011;63132;52.268;5.192;2023-04-24T15:06:18;18.25;;;3.55;;
74626;SDS011;63132;52.268;5.192;2023-04-24T15:08:45;16.02;;;3.63;;
74626;SDS011;63132;52.268;5.192;2023-04-24T15:11:10;13.13;;;3.10;;
74626;SDS011;63132;52.268;5.192;2023-04-24T15:13:36;12.35;;;3.92;;
74626;SDS011;63132;52.268;5.192;2023-04-24T15:16:01;12.18;;;3.45;;
74626;SDS011;63132;52.268;5.192;2023-04-24T15:18:27;12.88;;;2.97;;
74626;SDS011;63132;52.268;5.192;2023-04-24T15:20:53;19.83;;;4.07;;
74626;SDS011;63132;52.268;5.192;2023-04-24T15:23:19;16.23;;;3.63;;
74626;SDS011;63132;52.268;5.192;2023-04-24T15:25:45;12.00;;;3.40;;
74626;SDS011;63132;52.268;5.192;2023-04-24T15:30:35;22.38;;;3.97;;
74626;SDS011;63132;52.268;5.192;2023-04-24T15:33:01;15.63;;;3.28;;
74626;SDS011;63132;52.268;5.192;2023-04-24T15:35:26;15.10;;;3.35;;
74626;SDS011;63132;52.268;5.192;2023-04-24T15:40:17;19.15;;;3.25;;
74626;SDS011;63132;52.268;5.192;2023-04-24T15:42:42;12.82;;;4.38;;
74626;SDS011;63132;52.268;5.192;2023-04-24T15:45:08;17.40;;;3.50;;
74626;SDS011;63132;52.268;5.192;2023-04-24T15:47:34;17.13;;;3.78;;
74626;SDS011;63132;52.268;5.192;2023-04-24T15:50:00;15.98;;;3.83;;
74626;SDS011;63132;52.268;5.192;2023-04-24T15:52:26;15.52;;;3.78;;